Valle Toledo, Valles Caldera, New Mexico Weather observations

Data are for 10 minute period ending at time listed.
 Day   Time   Solar   Ave.   Ave.  Ave.  Vector  Max.   Baro.   Total    
  of    of     Rad.   Air    Rel.  Wind   Wind   Wind  Press.  Precip.   
Year   Day            Temp.  Hum.  Speed  Dir.   Gust                    
2014   (MST)  Kw/m2    F      %     mph   deg.    mph    mb.     in.     
-------------------------------------------------------------------------
 355   10:30   0.45   34.8    56    4.7   242     9.6   725.3    0.00 
 355   10:40   0.35   34.2    57    5.1   268     9.0   725.4    0.00 
 355   10:50   0.29   33.7    59    5.2   279     9.0   725.6    0.00 
 355   11:00   0.23   34.0    59    5.9   284    10.2   725.6    0.00 
 355   11:10   0.30   34.2    59    6.5   290    16.7   725.8    0.00 
 355   11:20   0.34   37.0    52    8.7   314    14.3   725.9    0.00 
 355   11:30   0.31   37.2    52   10.2   312    20.3   726.1    0.00 
 355   11:40   0.33   36.1    54   10.6   331    16.7   725.9    0.00 
 355   11:50   0.29   36.3    54    5.7   294    10.8   725.7    0.00 
 355   12:00   0.29   35.8    55    6.2   274    13.7   725.3    0.00 
 355   12:10   0.39   38.3    50    2.7   349     6.6   724.8    0.00 
 355   12:20   0.42   40.7    45    3.3   222     7.8   724.5    0.00 
 355   12:30   0.47   39.5    48    4.0   143     6.6   724.1    0.00 
 355   12:40   0.53   39.6    49    4.9   110     7.8   723.8    0.00 
 355   12:50   0.49   40.7    48    4.4   141     7.8   723.9    0.00 
 355   13:00   0.39   40.5    47    7.1   297    18.5   724.2    0.00 
 355   13:10   0.39   39.7    48    9.8   299    17.9   724.4    0.00 
 355   13:20   0.45   39.2    49   12.1   308    22.1   724.4    0.00 
 355   13:30   0.39   38.9    50   13.4   311    23.9   724.4    0.00 
 355   13:40   0.35   37.6    53   12.0   303    22.7   724.5    0.00 
 355   13:50   0.41   39.0    51    8.4   308    14.9   724.2    0.00 
 355   14:00   0.32   39.9    50    8.1   319    14.3   723.9    0.00 
 355   14:10   0.30   39.5    50    8.9   318    16.7   723.8    0.00 
 355   14:20   0.42   39.6    51   12.8   324    25.6   723.9    0.00 
 355   14:30   0.28   39.0    53   12.6   322    21.5   723.7    0.00 
 355   14:40   0.31   39.5    52   10.8   330    25.0   723.5    0.00 
 355   14:50   0.35   40.9    50   10.8   316    20.3   723.5    0.00 
 355   15:00   0.29   41.3    49   13.1   311    22.1   723.4    0.00 
 355   15:10   0.30   41.9    48   12.6   318    20.9   723.4    0.00 
 355   15:20   0.27   41.1    51   14.2   311    23.9   723.7    0.00 
 355   15:30   0.25   40.5    53   16.4   311    28.6   723.8    0.00 
 355   15:40   0.17   38.4    57   14.1   312    26.2   723.8    0.00 
 355   15:50   0.18   38.2    58   14.6   313    22.7   723.9    0.00 
 355   16:00   0.18   38.1    58   15.4   313    26.2   724.1    0.00 
 355   16:10   0.13   36.5    62   14.2   310    23.3   724.2    0.00 
 355   16:20   0.15   36.8    62   14.3   312    27.4   724.3    0.00 
 355   16:30   0.11   35.9    63   13.6   316    25.6   724.4    0.00 
 355   16:40   0.03   35.0    65    9.8   298    24.5   724.2    0.00 
 355   16:50   0.01   33.9    67    8.7   292    21.5   724.1    0.00 
 355   17:00   0.00   33.5    67   10.1   302    22.1   724.1    0.00 
 355   17:10   0.00   33.2    68    8.7   300    19.7   724.1    0.00 
 355   17:20   0.00   33.3    68   11.1   302    24.5   724.1    0.00 
 355   17:30   0.00   33.5    68   10.8   305    25.0   724.1    0.00 
 355   17:40   0.00   33.3    68    9.6   313    19.7   724.1    0.00 
 355   17:50   0.00   33.1    70    9.0   301    21.5   724.2    0.00 
 355   18:00   0.00   33.1    70   10.2   291    20.3   724.3    0.00 
 355   18:10   0.00   33.0    71    9.9   300    19.7   724.4    0.00 
 355   18:20   0.00   33.3    71   10.0   298    22.7   724.5    0.00 
 355   18:30   0.00   33.3    72    9.9   304    20.3   724.5    0.00 
 355   18:40   0.00   33.3    72   12.4   300    26.2   724.5    0.00 
 355   18:50   0.00   33.3    72   12.2   298    24.5   724.6    0.00 
 355   19:00   0.00   33.4    72   12.1   296    26.2   724.6    0.00 
 355   19:10   0.00   33.4    72   10.8   296    20.3   724.6    0.00 
 355   19:20   0.00   33.5    72   11.5   304    24.5   724.6    0.00 
 355   19:30   0.00   33.7    71   11.1   293    25.0   724.5    0.00 
 355   19:40   0.00   33.3    72    8.7   292    15.5   724.4    0.00 
 355   19:50   0.00   33.4    72    9.8   301    17.9   724.4    0.00 
 355   20:00   0.00   33.9    71   11.6   292    22.7   724.5    0.00 
 355   20:10   0.00   34.1    70   11.4   288    20.9   724.4    0.00 
 355   20:20   0.00   34.0    71    8.2   284    14.9   724.4    0.00 
 355   20:30   0.00   33.7    71    8.3   290    19.7   724.4    0.00 
 355   20:40   0.00   33.7    71    8.5   287    17.9   724.4    0.00 
 355   20:50   0.00   33.5    72   10.2   273    29.2   724.1    0.00 
 355   21:00   0.00   33.2    73    8.1   285    14.3   724.2    0.00 
 355   21:10   0.00   33.1    74    9.1   279    16.1   724.0    0.00 
 355   21:20   0.00   32.9    74    7.5   291    13.1   724.0    0.00 
 355   21:30   0.00   32.7    75    7.9   287    14.3   724.0    0.00 
 355   21:40   0.00   32.7    75    7.8   288    13.7   723.9    0.00 
 355   21:50   0.00   32.8    74    7.9   294    15.5   723.8    0.00 
 355   22:00   0.00   32.8    75    7.4   292    13.7   723.8    0.00 
 355   22:10   0.00   33.6    72    9.6   291    17.9   723.7    0.00 
 355   22:20   0.00   33.6    72    8.2   291    15.5   723.8    0.00 
 355   22:30   0.00   33.5    73    8.8   294    26.8   723.7    0.00 
 355   22:40   0.00   33.5    72   10.4   279    19.1   723.7    0.00 
 355   22:50   0.00   33.7    72    9.4   283    20.3   723.7    0.00 
 355   23:00   0.00   33.9    71    9.7   298    19.7   723.9    0.00 
 355   23:10   0.00   34.3    70   11.2   286    22.7   723.8    0.00 
 355   23:20   0.00   34.4    70   11.8   293    24.5   723.7    0.00 
 355   23:30   0.00   34.3    70    9.8   296    18.5   723.6    0.00 
 355   23:40   0.00   33.8    72    8.7   280    19.7   723.6    0.00 
 355   23:50   0.00   32.8    75    9.0   285    17.3   723.7    0.00 
 356    0:00   0.00   32.4    76    8.9   282    22.7   723.4    0.00 
 356    0:10   0.00   33.5    73   11.6   288    23.3   723.1    0.00 
 356    0:20   0.00   34.1    71   13.5   302    24.5   723.0    0.00 
 356    0:30   0.00   34.5    69   17.6   305    33.4   722.9    0.00 
 356    0:40   0.00   34.7    68   17.5   301    36.4   723.0    0.00 
 356    0:50   0.00   34.7    67   19.0   305    34.6   723.0    0.00 
 356    1:00   0.00   34.8    67   21.7   301    41.7   723.3    0.00 
 356    1:10   0.00   34.6    68   19.5   304    35.8   723.1    0.00 
 356    1:20   0.00   34.5    69   19.1   304    39.9   722.9    0.00 
 356    1:30   0.00   34.5    68   19.4   307    38.2   723.0    0.00 
 356    1:40   0.00   34.4    69   20.2   302    37.0   723.0    0.00 
 356    1:50   0.00   34.4    69   22.4   311    40.5   722.9    0.00 
 356    2:00   0.00   34.4    69   19.9   304    33.4   722.9    0.00 
 356    2:10   0.00   34.3    70   18.5   304    34.6   722.9    0.00 
 356    2:20   0.00   34.3    69   19.8   308    35.8   722.9    0.00 
 356    2:30   0.00   34.3    69   16.2   304    25.6   722.9    0.00 
 356    2:40   0.00   34.2    70   17.2   306    30.4   722.9    0.00 
 356    2:50   0.00   34.3    70   17.3   308    34.0   722.9    0.00 
 356    3:00   0.00   34.2    70   15.3   304    31.0   722.9    0.00 
 356    3:10   0.00   34.0    71   14.4   309    25.0   723.0    0.00 
 356    3:20   0.00   33.8    71   18.5   301    32.2   723.0    0.00 
 356    3:30   0.00   33.5    71   15.8   311    25.6   723.0    0.00 
 356    3:40   0.00   33.2    71   16.5   311    29.8   723.0    0.00 
 356    3:50   0.00   33.0    71   14.0   313    26.2   722.9    0.00 
 356    4:00   0.00   32.6    72   13.6   308    26.2   722.9    0.00 
 356    4:10   0.00   32.4    73   12.4   313    19.1   723.0    0.00 
 356    4:20   0.00   32.2    73   14.5   312    23.9   723.1    0.00 
 356    4:30   0.00   32.4    72   17.8   305    35.2   723.0    0.00 
 356    4:40   0.00   32.6    71   18.5   304    29.8   723.0    0.00 
 356    4:50   0.00   32.6    71   16.5   306    31.6   723.1    0.00 
 356    5:00   0.00   32.6    71   15.9   306    27.4   723.1    0.00 
 356    5:10   0.00   32.5    70   15.1   308    29.8   723.2    0.00 
 356    5:20   0.00   32.6    69   15.8   306    28.6   723.2    0.00 
 356    5:30   0.00   32.6    68   15.4   301    29.8   723.2    0.00 
 356    5:40   0.00   32.6    68   17.8   304    28.6   723.1    0.00 
 356    5:50   0.00   32.7    68   16.4   305    30.4   723.0    0.00 
 356    6:00   0.00   32.7    69   17.3   304    28.0   723.2    0.00 
 356    6:10   0.00   32.7    70   17.3   303    28.6   723.2    0.00 
 356    6:20   0.00   32.5    71   15.5   302    29.2   723.3    0.00 
 356    6:30   0.00   32.3    72   17.4   310    29.8   723.4    0.00 
 356    6:40   0.00   32.3    72   17.9   306    31.6   723.3    0.00 
 356    6:50   0.00   32.3    71   11.4   301    26.2   723.2    0.00 
 356    7:00   0.00   32.4    70   12.3   300    22.7   723.4    0.00 
 356    7:10   0.00   32.0    70   15.7   306    44.7   723.3    0.00 
 356    7:20   0.00   31.8    70   13.4   304    26.8   723.1    0.00 
 356    7:30   0.01   32.1    67   18.1   301    36.4   722.8    0.00 
 356    7:40   0.01   32.3    66   17.9   303    31.6   723.1    0.00 
 356    7:50   0.01   32.6    64   15.0   303    26.2   722.9    0.00 
 356    8:00   0.03   33.0    64   15.4   306    29.2   722.9    0.00 
 356    8:10   0.03   32.9    65   18.5   303    36.4   722.9    0.00 
 356    8:20   0.04   33.0    65   18.5   310    31.0   722.9    0.00 
 356    8:30   0.07   33.4    63   18.4   309    32.2   722.9    0.00 
 356    8:40   0.10   33.7    63   15.6   304    33.4   722.8    0.00 
 356    8:50   0.12   34.1    61   16.9   308    32.8   722.7    0.00 
 356    9:00   0.10   34.4    60   12.7   295    20.9   722.7    0.00 
 356    9:10   0.12   34.6    59   13.8   291    34.0   722.7    0.00 
 356    9:20   0.13   35.0    57   16.3   301    35.8   722.9    0.00 
 356    9:30   0.13   35.1    57   12.7   301    26.2   722.9    0.00 
 356    9:40   0.20   35.8    57   10.6   300    22.7   722.8    0.00 
 356    9:50   0.22   36.2    58    9.7   297    17.9   722.6    0.00 
 356   10:00   0.28   36.6    58   11.0   295    30.4   722.8    0.00 
 356   10:10   0.24   37.2    56   11.2   296    20.9   722.8    0.00 
 356   10:20   0.25   37.0    58    9.9   289    25.6   722.8    0.00 

Return to Valle Toledo, Valles Caldera graphs page.


Western Regional Climate Center,wrcc@dri.edu